Time;durP1;ratioP1;P1;durP2;ratioP2;P2;SDS_P1;SDS_P2;PMS_P1;PMS_P2;Temp;Humidity;BMP_temperature;BMP_pressure;BME280_temperature;BME280_humidity;BME280_pressure;Samples;Min_cycle;Max_cycle;Signal;HPM_P1;HPM_P2
2021/05/18 00:01:26;;;;;;;2.00;1.13;;;8.20;99.90;;;;;;5006270;28;20609;-60
2021/05/18 00:03:52;;;;;;;1.20;1.10;;;8.20;99.90;;;;;;5011412;28;20450;-59
2021/05/18 00:06:17;;;;;;;5.13;1.10;;;8.20;99.90;;;;;;5008660;28;20176;-60
2021/05/18 00:11:43;;;;;;;1.20;1.10;;;8.20;99.90;;;;;;5015324;28;20225;-57
2021/05/18 00:14:09;;;;;;;1.30;0.90;;;8.30;99.90;;;;;;5018412;28;20477;-59
2021/05/18 00:16:35;;;;;;;1.10;1.10;;;8.30;99.90;;;;;;5017297;28;20457;-59
2021/05/18 00:19:01;;;;;;;1.10;1.10;;;8.30;99.90;;;;;;5013217;28;20422;-59
2021/05/18 00:21:27;;;;;;;1.00;1.00;;;8.30;99.90;;;;;;5032227;28;20763;-59
2021/05/18 00:23:53;;;;;;;1.87;1.10;;;8.30;99.90;;;;;;5012069;28;20538;-59
2021/05/18 00:26:18;;;;;;;1.23;1.10;;;8.30;99.90;;;;;;5024751;28;20188;-59
2021/05/18 00:28:44;;;;;;;1.30;1.03;;;8.30;99.90;;;;;;5013777;28;20235;-60
2021/05/18 00:31:10;;;;;;;1.20;1.10;;;8.20;99.90;;;;;;5018213;28;20185;-60
2021/05/18 00:33:35;;;;;;;1.50;1.40;;;8.20;99.90;;;;;;5019182;28;20214;-60
2021/05/18 00:36:03;;;;;;;1.90;1.53;;;8.20;99.90;;;;;;5019810;28;20200;-60
2021/05/18 00:38:28;;;;;;;3.37;1.20;;;8.20;99.90;;;;;;5010771;28;20173;-59
2021/05/18 00:40:54;;;;;;;1.00;1.00;;;8.20;99.90;;;;;;5010795;28;20815;-59
2021/05/18 00:43:20;;;;;;;1.10;1.00;;;8.20;99.90;;;;;;5009532;28;20196;-58
2021/05/18 00:45:48;;;;;;;1.60;1.00;;;8.20;99.90;;;;;;5028722;28;20519;-59
2021/05/18 00:48:15;;;;;;;1.00;1.00;;;8.10;99.90;;;;;;5017501;28;20184;-58
2021/05/18 00:50:45;;;;;;;1.43;1.00;;;8.10;99.90;;;;;;5018341;28;20805;-59
2021/05/18 00:53:12;;;;;;;2.17;1.10;;;8.10;99.90;;;;;;5013369;28;20474;-58
2021/05/18 00:56:01;;;;;;;1.10;1.10;;;8.10;99.90;;;;;;5018023;28;20443;-60
2021/05/18 00:58:35;;;;;;;5.03;1.13;;;8.00;99.90;;;;;;5010358;28;20919;-59
2021/05/18 01:01:16;;;;;;;1.83;0.93;;;8.00;99.90;;;;;;5019496;28;21270;-60
2021/05/18 01:03:42;;;;;;;1.10;1.10;;;8.00;99.90;;;;;;5024489;28;20490;-59
2021/05/18 01:08:46;;;;;;;1.40;0.90;;;8.00;99.90;;;;;;5029479;28;20476;-59
2021/05/18 01:11:13;;;;;;;1.03;1.00;;;8.00;99.90;;;;;;5019574;28;20431;-59
2021/05/18 01:13:40;;;;;;;1.53;0.97;;;8.00;99.90;;;;;;5011712;28;20956;-59
2021/05/18 01:16:08;;;;;;;1.00;1.00;;;8.00;99.90;;;;;;5024826;28;20457;-59
2021/05/18 01:18:43;;;;;;;1.27;1.17;;;8.00;99.90;;;;;;5009777;28;20802;-60
2021/05/18 01:21:10;;;;;;;1.93;1.10;;;7.90;99.90;;;;;;5019328;28;20851;-59
2021/05/18 01:23:36;;;;;;;1.20;1.10;;;7.90;99.90;;;;;;5014817;28;21143;-58
2021/05/18 01:26:03;;;;;;;1.30;1.20;;;7.90;99.90;;;;;;5013548;28;20432;-59
2021/05/18 01:28:29;;;;;;;1.10;1.00;;;7.80;99.90;;;;;;5016595;28;20439;-59
2021/05/18 01:30:56;;;;;;;1.40;1.17;;;7.90;99.90;;;;;;5011057;28;20453;-60
2021/05/18 01:33:25;;;;;;;1.03;1.03;;;7.90;99.90;;;;;;5024770;28;20541;-60
2021/05/18 01:35:51;;;;;;;2.77;1.00;;;7.90;99.90;;;;;;5017045;28;20834;-59
2021/05/18 01:38:20;;;;;;;1.10;1.00;;;7.90;99.90;;;;;;5030552;28;20479;-59
2021/05/18 01:43:31;;;;;;;2.20;1.10;;;7.80;99.90;;;;;;5012277;28;20839;-59
2021/05/18 01:45:57;;;;;;;1.20;1.10;;;7.80;99.90;;;;;;4992904;28;20439;-59
2021/05/18 01:48:23;;;;;;;1.10;1.00;;;7.80;99.90;;;;;;5014869;28;20172;-60
2021/05/18 01:50:50;;;;;;;1.10;1.10;;;7.70;99.90;;;;;;5018563;28;20243;-59
2021/05/18 01:53:18;;;;;;;1.10;1.03;;;7.80;99.90;;;;;;5024163;28;20454;-60
2021/05/18 01:58:16;;;;;;;0.80;0.80;;;7.70;99.90;;;;;;5012998;28;20774;-60
2021/05/18 02:00:42;;;;;;;2.07;1.10;;;7.70;99.90;;;;;;5014334;28;20433;-60
2021/05/18 02:03:08;;;;;;;1.90;1.10;;;7.70;99.90;;;;;;5026732;28;20202;-61
2021/05/18 02:05:40;;;;;;;1.00;1.00;;;7.70;99.90;;;;;;5025206;28;20422;-60
2021/05/18 02:08:10;;;;;;;0.90;0.90;;;7.70;99.90;;;;;;5001634;28;20268;-59
2021/05/18 02:10:36;;;;;;;0.80;0.80;;;7.70;99.90;;;;;;5007189;28;20513;-58
2021/05/18 02:13:02;;;;;;;1.20;1.10;;;7.80;99.90;;;;;;5011112;28;20919;-61
2021/05/18 02:26:23;;;;;;;0.90;0.90;;;7.80;99.90;;;;;;5022437;28;20428;-59
2021/05/18 02:28:51;;;;;;;1.00;1.00;;;7.80;99.90;;;;;;5013965;28;20407;-60
2021/05/18 02:31:18;;;;;;;0.90;0.90;;;7.80;99.90;;;;;;5019106;28;20175;-59
2021/05/18 02:33:49;;;;;;;1.00;1.00;;;7.80;99.90;;;;;;5014795;28;20538;-59
2021/05/18 02:36:16;;;;;;;0.90;0.90;;;7.80;99.90;;;;;;5018780;28;20447;-59
2021/05/18 02:38:42;;;;;;;1.00;1.00;;;7.80;99.90;;;;;;5014988;28;20541;-59
2021/05/18 02:41:08;;;;;;;0.77;0.77;;;7.80;99.90;;;;;;5029620;28;20466;-60
2021/05/18 02:43:43;;;;;;;1.30;1.20;;;7.80;99.90;;;;;;5003927;28;20219;-59
2021/05/18 02:51:19;;;;;;;0.97;0.93;;;7.80;99.90;;;;;;5018748;28;20274;-60
2021/05/18 02:53:47;;;;;;;1.00;1.00;;;7.80;99.90;;;;;;5024440;28;20486;-59
2021/05/18 02:56:28;;;;;;;0.90;0.90;;;7.80;99.90;;;;;;5030832;28;20386;-59
2021/05/18 02:59:17;;;;;;;1.00;1.00;;;7.80;99.90;;;;;;5025247;28;20429;-59
2021/05/18 03:01:41;;;;;;;0.97;0.97;;;7.80;99.90;;;;;;5033892;28;20429;-59
2021/05/18 03:04:08;;;;;;;5.57;1.80;;;7.80;99.90;;;;;;5017553;28;20485;-59
2021/05/18 03:06:34;;;;;;;1.03;0.80;;;7.80;99.90;;;;;;5008167;28;20609;-60
2021/05/18 03:09:00;;;;;;;8.13;1.17;;;7.70;99.90;;;;;;5016334;28;20419;-60
2021/05/18 03:11:25;;;;;;;1.00;1.00;;;7.80;99.90;;;;;;5013260;28;20180;-59
2021/05/18 03:13:54;;;;;;;1.27;1.10;;;7.70;99.90;;;;;;5017339;28;20981;-59
2021/05/18 03:16:20;;;;;;;0.90;0.90;;;7.70;99.90;;;;;;5026206;28;20454;-59
2021/05/18 03:18:46;;;;;;;0.83;0.83;;;7.70;99.90;;;;;;5011342;28;20430;-60
2021/05/18 03:21:12;;;;;;;1.00;1.00;;;7.70;99.90;;;;;;5014061;28;20516;-59
2021/05/18 03:23:37;;;;;;;1.00;1.00;;;7.70;99.90;;;;;;4999973;28;20529;-59
2021/05/18 03:26:03;;;;;;;1.13;1.03;;;7.70;99.90;;;;;;5026595;28;20176;-58
2021/05/18 03:28:29;;;;;;;1.07;0.93;;;7.70;99.90;;;;;;5003879;28;20198;-59
2021/05/18 03:36:11;;;;;;;1.10;1.00;;;7.80;99.90;;;;;;5018632;28;21141;-59
2021/05/18 03:38:40;;;;;;;0.90;0.90;;;7.80;99.90;;;;;;5032087;28;20528;-59
2021/05/18 03:41:20;;;;;;;1.17;1.07;;;7.80;99.90;;;;;;5022784;28;20180;-60
2021/05/18 04:13:18;;;;;;;1.17;1.13;;;7.80;99.90;;;;;;5026085;28;20448;-57
2021/05/18 04:18:32;;;;;;;1.20;1.10;;;7.80;99.90;;;;;;5020173;28;20433;-58
2021/05/18 04:21:26;;;;;;;2.43;1.20;;;7.90;99.90;;;;;;5003691;28;20438;-58
2021/05/18 04:38:43;;;;;;;0.97;0.97;;;7.90;99.90;;;;;;5023079;28;20498;-61
2021/05/18 05:01:16;;;;;;;1.10;1.10;;;8.10;99.90;;;;;;5017021;28;20488;-60
2021/05/18 05:06:19;;;;;;;1.40;1.30;;;8.20;99.90;;;;;;5019590;28;20934;-60
2021/05/18 05:14:25;;;;;;;1.17;1.07;;;8.20;99.90;;;;;;5011544;28;20426;-60
2021/05/18 05:16:52;;;;;;;1.30;1.20;;;8.20;99.90;;;;;;5022090;28;20443;-60
2021/05/18 05:19:18;;;;;;;1.80;1.20;;;8.20;99.90;;;;;;5015338;28;20427;-61
2021/05/18 05:21:44;;;;;;;1.67;1.10;;;8.20;99.90;;;;;;5016796;28;20411;-60
2021/05/18 05:24:10;;;;;;;1.37;1.17;;;8.20;99.90;;;;;;5010028;28;20434;-60
2021/05/18 05:26:38;;;;;;;1.30;0.90;;;8.20;99.90;;;;;;5014859;28;20570;-60
2021/05/18 05:29:05;;;;;;;0.80;0.80;;;8.20;99.90;;;;;;5041903;28;20416;-59
2021/05/18 05:31:31;;;;;;;4.37;0.80;;;8.10;99.90;;;;;;5028748;28;20439;-59
2021/05/18 05:33:57;;;;;;;1.60;0.90;;;8.10;99.90;;;;;;5029468;28;20436;-58
2021/05/18 05:36:23;;;;;;;0.80;0.80;;;8.00;99.90;;;;;;5026467;28;20885;-59
2021/05/18 05:38:49;;;;;;;0.97;0.97;;;8.00;99.90;;;;;;5030405;28;20180;-60
2021/05/18 05:41:16;;;;;;;1.10;1.00;;;8.00;99.90;;;;;;5029833;28;20454;-59
2021/05/18 05:43:42;;;;;;;1.23;1.07;;;8.00;99.90;;;;;;5020941;28;20484;-60
2021/05/18 05:46:08;;;;;;;1.30;1.17;;;8.00;99.90;;;;;;5020352;28;20477;-59
2021/05/18 05:48:34;;;;;;;1.27;1.17;;;8.00;99.90;;;;;;5009492;28;20188;-59
2021/05/18 05:51:00;;;;;;;1.40;1.30;;;8.10;99.90;;;;;;5017392;28;20481;-60
2021/05/18 05:53:26;;;;;;;1.50;1.33;;;8.10;99.90;;;;;;5037446;28;20465;-59
2021/05/18 05:55:51;;;;;;;1.97;1.23;;;8.10;99.90;;;;;;5023253;28;20182;-59
2021/05/18 05:58:17;;;;;;;1.30;1.30;;;8.20;99.90;;;;;;5019372;28;20187;-59
2021/05/18 06:00:43;;;;;;;1.73;1.63;;;8.20;99.90;;;;;;5011441;28;20172;-59
2021/05/18 06:03:08;;;;;;;4.00;2.00;;;8.20;99.90;;;;;;5016237;28;20292;-59
2021/05/18 06:05:34;;;;;;;3.67;2.47;;;8.30;99.90;;;;;;5016959;28;20192;-59
2021/05/18 06:08:00;;;;;;;2.23;2.03;;;8.30;99.90;;;;;;5014002;28;20206;-59
2021/05/18 06:10:32;;;;;;;2.97;2.47;;;8.40;99.90;;;;;;5022678;28;20484;-60
2021/05/18 06:13:18;;;;;;;2.90;2.27;;;8.50;99.90;;;;;;5020723;28;20211;-60
2021/05/18 06:37:38;;;;;;;;;;;;;;;;;;;;;
2021/05/18 06:47:48;;;;;;;3.53;1.10;;;8.90;99.90;;;;;;5019675;28;20195;-60
2021/05/18 06:52:41;;;;;;;1.00;0.90;;;8.90;99.90;;;;;;5031140;28;20196;-59
2021/05/18 06:55:15;;;;;;;0.90;0.90;;;8.90;99.90;;;;;;5018452;28;20191;-59
2021/05/18 06:57:44;;;;;;;0.73;0.73;;;8.80;99.90;;;;;;5029593;28;20454;-60
2021/05/18 07:00:12;;;;;;;1.17;0.80;;;8.80;99.90;;;;;;5036573;28;20452;-58
2021/05/18 07:02:41;;;;;;;0.70;0.70;;;8.80;99.90;;;;;;5015068;28;20533;-59
2021/05/18 07:05:22;;;;;;;4.83;0.90;;;8.80;99.90;;;;;;5026971;28;20446;-59
2021/05/18 07:07:52;;;;;;;1.00;0.90;;;8.70;99.90;;;;;;5012684;28;20431;-59
2021/05/18 07:10:18;;;;;;;0.97;0.80;;;8.50;99.90;;;;;;5028386;28;20855;-59
2021/05/18 07:12:44;;;;;;;1.30;1.20;;;8.50;99.90;;;;;;5037455;28;20984;-59
2021/05/18 07:15:10;;;;;;;0.97;0.93;;;8.40;99.90;;;;;;5021176;28;20196;-59
2021/05/18 07:17:36;;;;;;;4.77;0.90;;;8.40;99.90;;;;;;5026039;28;20192;-60
2021/05/18 07:20:02;;;;;;;1.97;1.80;;;8.40;99.90;;;;;;5027851;28;20440;-60
2021/05/18 07:22:27;;;;;;;1.10;1.00;;;8.50;99.90;;;;;;5032588;28;20242;-61
2021/05/18 07:24:54;;;;;;;3.13;1.10;;;8.50;99.90;;;;;;5013219;28;20831;-60
2021/05/18 07:27:20;;;;;;;0.80;0.80;;;8.50;99.90;;;;;;5031976;28;20176;-59
2021/05/18 07:29:46;;;;;;;1.57;1.00;;;8.50;99.90;;;;;;5015609;28;20545;-60
2021/05/18 07:32:11;;;;;;;1.03;0.93;;;8.50;99.90;;;;;;5017197;28;20191;-60
2021/05/18 07:34:37;;;;;;;0.97;0.90;;;8.60;99.90;;;;;;5023389;28;20479;-59
2021/05/18 07:37:03;;;;;;;1.43;1.33;;;8.70;99.90;;;;;;5031072;28;20195;-59
2021/05/18 07:39:28;;;;;;;0.93;0.90;;;8.80;99.90;;;;;;5039465;28;20241;-60
2021/05/18 07:41:54;;;;;;;2.37;1.00;;;8.80;99.90;;;;;;5020639;28;20181;-60
2021/05/18 07:44:20;;;;;;;2.33;0.97;;;8.90;99.90;;;;;;5020869;28;20424;-59
2021/05/18 07:46:46;;;;;;;1.37;0.93;;;9.10;99.90;;;;;;5036568;28;20671;-59
2021/05/18 07:49:16;;;;;;;1.30;1.10;;;9.30;99.90;;;;;;5022488;28;20184;-60
2021/05/18 08:05:28;;;;;;;0.93;0.93;;;9.80;99.90;;;;;;5030115;28;20751;-59
2021/05/18 08:07:55;;;;;;;2.10;1.10;;;10.00;99.90;;;;;;5013766;28;20486;-60
2021/05/18 08:10:32;;;;;;;1.20;1.10;;;10.10;99.90;;;;;;5025004;28;20836;-59
2021/05/18 08:12:58;;;;;;;1.27;0.90;;;10.20;99.90;;;;;;5028838;28;20448;-59
2021/05/18 08:46:30;;;;;;;1.50;0.97;;;10.00;98.90;;;;;;5042487;28;20762;-58
2021/05/18 08:47:06;;;;;;;4.57;1.30;;;10.30;99.90;;;;;;5029758;28;20437;-59
2021/05/18 09:28:41;;;;;;;1.67;1.00;;;11.50;94.60;;;;;;5031240;28;20593;-59
2021/05/18 10:34:53;;;;;;;2.50;1.03;;;11.50;95.60;;;;;;5028686;28;20774;-60
2021/05/18 10:37:40;;;;;;;1.47;1.10;;;11.60;95.20;;;;;;5025022;28;20982;-59
2021/05/18 10:40:25;;;;;;;2.60;1.07;;;11.90;94.00;;;;;;5029443;28;20409;-59
2021/05/18 10:43:19;;;;;;;1.27;1.03;;;12.10;92.70;;;;;;5030601;28;20422;-59
2021/05/18 10:46:04;;;;;;;3.27;0.90;;;12.30;94.20;;;;;;5022427;28;20493;-60
2021/05/18 10:48:34;;;;;;;1.30;1.10;;;12.50;92.80;;;;;;5011182;28;21008;-59
2021/05/18 10:51:20;;;;;;;1.63;1.10;;;12.40;91.00;;;;;;5030805;28;20403;-59
2021/05/18 10:54:10;;;;;;;2.27;1.80;;;12.40;93.20;;;;;;5020107;28;20882;-61
2021/05/18 10:56:54;;;;;;;;;;;;;;;;;;;;;
2021/05/18 10:59:26;;;;;;;1.70;1.07;;;12.90;91.20;;;;;;5037652;28;20436;-60
2021/05/18 11:02:01;;;;;;;2.30;1.03;;;12.90;91.70;;;;;;5034002;28;20777;-60
2021/05/18 11:04:29;;;;;;;1.23;1.10;;;12.70;92.00;;;;;;5004485;28;20480;-59
2021/05/18 11:06:57;;;;;;;2.83;0.97;;;12.50;92.40;;;;;;5027426;28;20445;-59
2021/05/18 11:09:23;;;;;;;2.53;1.00;;;12.10;94.30;;;;;;5036080;28;20415;-60
2021/05/18 11:12:03;;;;;;;3.10;1.10;;;11.70;93.70;;;;;;5032177;28;20398;-61
2021/05/18 11:14:47;;;;;;;1.40;0.97;;;11.40;94.30;;;;;;5013999;28;20479;-60
2021/05/18 11:17:16;;;;;;;1.00;1.00;;;11.10;95.30;;;;;;5019526;28;20470;-59
2021/05/18 11:19:52;;;;;;;2.03;1.10;;;10.90;96.60;;;;;;5020553;28;20514;-59
2021/05/18 11:23:18;;;;;;;1.00;1.00;;;11.00;97.30;;;;;;5019773;28;20787;-59
2021/05/18 11:25:05;;;;;;;1.07;1.00;;;11.10;98.40;;;;;;5021141;28;20441;-59
2021/05/18 11:27:30;;;;;;;1.23;0.90;;;11.20;98.50;;;;;;5009125;28;20649;-59
2021/05/18 11:29:56;;;;;;;1.93;1.10;;;11.30;98.30;;;;;;5021435;28;20555;-59
2021/05/18 11:32:22;;;;;;;1.10;1.00;;;11.50;98.50;;;;;;5009432;28;20198;-60
2021/05/18 11:34:51;;;;;;;1.27;1.00;;;11.70;98.40;;;;;;5019677;28;20288;-59
2021/05/18 11:37:17;;;;;;;2.60;1.20;;;12.00;99.10;;;;;;5020931;28;20238;-60
2021/05/18 11:39:43;;;;;;;1.20;1.10;;;12.30;97.60;;;;;;5022491;28;20466;-60
2021/05/18 11:42:08;;;;;;;2.13;1.10;;;12.60;94.90;;;;;;5023175;28;20695;-59
2021/05/18 11:44:35;;;;;;;0.97;0.93;;;12.90;95.30;;;;;;5008713;28;20206;-58
2021/05/18 11:47:01;;;;;;;1.00;0.97;;;13.30;90.80;;;;;;5015054;28;20619;-59
2021/05/18 11:49:26;;;;;;;1.90;0.93;;;13.50;79.80;;;;;;5017223;28;20944;-59
2021/05/18 11:51:57;;;;;;;1.93;0.90;;;13.80;79.30;;;;;;5023515;28;20732;-59
2021/05/18 11:54:27;;;;;;;1.83;0.90;;;14.00;68.70;;;;;;5015562;28;20750;-60
2021/05/18 11:56:54;;;;;;;4.50;2.60;;;14.00;64.60;;;;;;5029153;28;20484;-60
2021/05/18 11:59:22;;;;;;;1.53;0.80;;;14.00;75.10;;;;;;4994917;28;20449;-60
2021/05/18 12:01:54;;;;;;;4.87;0.90;;;14.20;68.50;;;;;;5017213;28;20434;-58
2021/05/18 12:04:22;;;;;;;1.43;1.00;;;14.40;65.30;;;;;;5020122;28;20549;-59
2021/05/18 12:07:02;;;;;;;1.30;1.10;;;14.30;60.60;;;;;;5021807;28;21249;-60
2021/05/18 12:09:29;;;;;;;1.00;0.90;;;14.20;61.10;;;;;;5014334;28;20431;-59
2021/05/18 12:12:02;;;;;;;1.20;1.10;;;14.20;64.10;;;;;;5018977;28;20438;-61
2021/05/18 12:14:28;;;;;;;1.27;1.17;;;14.30;66.90;;;;;;5016874;28;20462;-59
2021/05/18 12:16:55;;;;;;;1.70;1.07;;;14.40;64.70;;;;;;5016765;28;20544;-59
2021/05/18 12:19:22;;;;;;;1.30;1.03;;;14.20;59.30;;;;;;5014635;28;20431;-60
2021/05/18 12:21:50;;;;;;;4.50;1.10;;;14.10;61.40;;;;;;5028135;28;20462;-58
2021/05/18 12:24:27;;;;;;;1.00;1.00;;;14.10;61.10;;;;;;5020213;28;20469;-60
2021/05/18 12:26:56;;;;;;;1.13;1.03;;;14.10;60.50;;;;;;5015344;28;20514;-59
2021/05/18 12:29:26;;;;;;;1.50;1.13;;;14.20;58.70;;;;;;5015355;28;20445;-60
2021/05/18 12:31:51;;;;;;;3.97;1.07;;;14.30;61.40;;;;;;5020567;28;20431;-59
2021/05/18 12:34:30;;;;;;;3.43;0.90;;;14.40;62.70;;;;;;5015851;28;20457;-60
2021/05/18 12:36:56;;;;;;;2.07;1.00;;;14.40;58.50;;;;;;5018431;28;20306;-59
2021/05/18 12:39:22;;;;;;;1.10;1.00;;;14.40;59.80;;;;;;5027844;28;20474;-60
2021/05/18 12:41:59;;;;;;;0.90;0.83;;;14.50;60.30;;;;;;5019239;28;20443;-60
2021/05/18 12:44:28;;;;;;;1.00;1.00;;;14.50;63.10;;;;;;4999583;28;20454;-60
2021/05/18 12:47:23;;;;;;;3.37;1.07;;;14.30;61.20;;;;;;5020518;28;20446;-58
2021/05/18 12:49:50;;;;;;;1.67;1.20;;;13.90;61.60;;;;;;5028550;28;20438;-59
2021/05/18 12:52:16;;;;;;;1.70;1.07;;;13.50;72.90;;;;;;5028578;28;20505;-60
2021/05/18 12:54:45;;;;;;;4.60;1.10;;;13.30;77.70;;;;;;5006010;28;20771;-59
2021/05/18 12:57:13;;;;;;;1.73;1.33;;;13.10;83.50;;;;;;5021944;28;20817;-59
2021/05/18 12:59:57;;;;;;;1.93;1.10;;;12.90;89.50;;;;;;5004079;28;20489;-59
2021/05/18 13:02:32;;;;;;;1.50;1.00;;;12.80;90.80;;;;;;5030364;28;20858;-60
2021/05/18 13:05:21;;;;;;;8.00;1.50;;;12.80;91.20;;;;;;5037355;28;20436;-59
2021/05/18 13:08:06;;;;;;;1.10;0.87;;;12.70;89.70;;;;;;5036879;28;20834;-60
2021/05/18 13:10:41;;;;;;;0.97;0.90;;;12.50;91.60;;;;;;5022513;28;20481;-59
2021/05/18 13:13:08;;;;;;;2.73;1.30;;;12.20;93.30;;;;;;5028901;28;20654;-59
2021/05/18 13:15:35;;;;;;;1.80;0.83;;;12.00;93.40;;;;;;5028487;28;20453;-58
2021/05/18 13:18:04;;;;;;;1.10;1.00;;;11.90;93.20;;;;;;5022886;28;20558;-59
2021/05/18 13:20:47;;;;;;;1.67;1.23;;;12.00;94.30;;;;;;5010145;28;20471;-59
2021/05/18 13:23:24;;;;;;;2.17;1.00;;;12.00;94.70;;;;;;5009031;28;20860;-59
2021/05/18 13:28:35;;;;;;;0.90;0.90;;;12.20;94.50;;;;;;5028961;28;20437;-62
2021/05/18 13:31:02;;;;;;;1.80;1.30;;;12.60;94.30;;;;;;5028874;28;20410;-60
2021/05/18 13:33:27;;;;;;;1.47;1.10;;;12.70;92.70;;;;;;5027656;28;20445;-59
2021/05/18 13:35:53;;;;;;;2.73;1.20;;;12.70;91.70;;;;;;5020741;28;20431;-60
2021/05/18 13:38:19;;;;;;;3.97;1.50;;;12.50;89.80;;;;;;5033229;28;20210;-60
2021/05/18 13:40:45;;;;;;;1.60;1.10;;;12.20;87.70;;;;;;5015519;28;20168;-60
2021/05/18 13:43:11;;;;;;;1.00;1.00;;;11.80;87.50;;;;;;5013824;28;20259;-61
2021/05/18 13:45:36;;;;;;;2.07;1.50;;;11.50;90.90;;;;;;5007785;28;20252;-59
2021/05/18 13:48:05;;;;;;;3.33;1.30;;;11.20;94.00;;;;;;5009750;28;20514;-60
2021/05/18 13:50:31;;;;;;;2.13;1.40;;;10.90;95.00;;;;;;5009787;28;20606;-61
2021/05/18 13:52:58;;;;;;;5.33;1.27;;;10.60;97.10;;;;;;5009676;28;20594;-60
2021/05/18 13:55:24;;;;;;;1.57;1.30;;;10.30;97.20;;;;;;5012555;28;20535;-60
2021/05/18 13:57:50;;;;;;;5.20;1.40;;;10.10;98.20;;;;;;4998692;28;20502;-60
2021/05/18 14:00:18;;;;;;;2.73;1.63;;;10.00;98.60;;;;;;5012879;28;20899;-60
2021/05/18 14:02:47;;;;;;;3.53;2.00;;;9.80;99.80;;;;;;5014836;28;20461;-60
2021/05/18 14:05:18;;;;;;;1.90;1.30;;;9.70;99.90;;;;;;5016023;28;20535;-61
2021/05/18 14:10:17;;;;;;;1.20;1.10;;;10.10;99.90;;;;;;5011472;28;20526;-62
2021/05/18 14:12:43;;;;;;;3.33;0.90;;;10.50;99.90;;;;;;5006280;28;20534;-60
2021/05/18 14:15:09;;;;;;;2.43;1.00;;;11.00;99.90;;;;;;5012191;28;20188;-61
2021/05/18 14:17:34;;;;;;;2.17;1.27;;;11.40;99.90;;;;;;5012901;28;20215;-62
2021/05/18 14:20:00;;;;;;;1.67;1.23;;;11.70;99.90;;;;;;5014277;28;20435;-61
2021/05/18 14:22:26;;;;;;;1.13;1.07;;;11.70;99.90;;;;;;5014029;28;20541;-62
2021/05/18 14:27:30;;;;;;;1.80;1.10;;;11.60;99.90;;;;;;5024048;28;20196;-61
2021/05/18 14:29:56;;;;;;;1.23;1.13;;;11.60;99.90;;;;;;4996330;28;21002;-63
2021/05/18 14:32:21;;;;;;;1.77;0.90;;;11.50;99.70;;;;;;4997741;28;20958;-60
2021/05/18 14:34:47;;;;;;;1.30;1.20;;;11.30;99.90;;;;;;5000911;28;20196;-60
2021/05/18 14:37:13;;;;;;;2.33;1.40;;;11.20;99.90;;;;;;5009750;28;21017;-60
2021/05/18 14:44:59;;;;;;;3.10;1.20;;;10.80;99.90;;;;;;5017304;28;20602;-62
2021/05/18 14:47:28;;;;;;;3.23;1.50;;;10.80;99.90;;;;;;5013876;28;21097;-61
2021/05/18 14:55:25;;;;;;;2.17;1.70;;;11.20;99.90;;;;;;5011905;28;20468;-60
2021/05/18 14:57:50;;;;;;;2.20;1.40;;;11.40;99.90;;;;;;5009570;28;20861;-59
2021/05/18 15:00:17;;;;;;;1.43;1.30;;;11.60;99.90;;;;;;5001912;28;20438;-60
2021/05/18 15:02:43;;;;;;;2.30;1.40;;;11.70;99.90;;;;;;5010846;28;20274;-61
2021/05/18 15:05:09;;;;;;;2.07;1.40;;;11.80;99.80;;;;;;5002086;28;21165;-61
2021/05/18 15:07:35;;;;;;;3.73;1.60;;;11.80;97.80;;;;;;5013830;28;20184;-60
2021/05/18 15:10:00;;;;;;;4.13;1.90;;;11.80;98.80;;;;;;4996678;28;20449;-60
2021/05/18 15:12:26;;;;;;;1.53;1.30;;;11.80;99.60;;;;;;5013799;28;20211;-61
2021/05/18 15:14:52;;;;;;;1.30;1.20;;;11.80;98.00;;;;;;5006690;28;20187;-61
2021/05/18 15:17:17;;;;;;;4.93;1.60;;;11.90;98.80;;;;;;4993228;28;20904;-60
2021/05/18 15:19:44;;;;;;;0.93;0.93;;;12.00;97.90;;;;;;5015511;28;20204;-60
2021/05/18 15:22:11;;;;;;;1.60;1.07;;;12.00;96.70;;;;;;5026556;28;20189;-60
2021/05/18 15:24:37;;;;;;;1.37;1.23;;;12.10;96.80;;;;;;5016076;28;20476;-60
2021/05/18 15:27:05;;;;;;;1.30;1.20;;;12.10;97.10;;;;;;5018291;28;20538;-60
2021/05/18 15:29:31;;;;;;;2.70;1.20;;;12.20;98.40;;;;;;5020137;28;20180;-60
2021/05/18 15:31:57;;;;;;;2.77;1.13;;;12.50;98.50;;;;;;5019645;28;20726;-61
2021/05/18 15:34:23;;;;;;;1.63;1.40;;;12.70;98.00;;;;;;5016355;28;20458;-61
2021/05/18 15:36:49;;;;;;;2.50;1.20;;;13.00;95.60;;;;;;5023368;28;20465;-60
2021/05/18 15:39:15;;;;;;;1.33;1.07;;;13.10;92.00;;;;;;5020297;28;20188;-60
2021/05/18 15:41:40;;;;;;;1.60;1.00;;;13.30;92.90;;;;;;5027781;28;20876;-61
2021/05/18 15:44:07;;;;;;;1.60;1.47;;;13.60;93.10;;;;;;5028223;28;21037;-60
2021/05/18 15:46:33;;;;;;;1.47;1.03;;;13.80;93.20;;;;;;5032882;28;20595;-61
2021/05/18 15:48:58;;;;;;;1.20;1.10;;;14.20;92.30;;;;;;5016822;28;20435;-60
2021/05/18 15:51:24;;;;;;;3.47;1.57;;;14.40;91.60;;;;;;5020778;28;20707;-61
2021/05/18 15:53:50;;;;;;;1.80;1.07;;;14.40;89.20;;;;;;5019749;28;20222;-61
2021/05/18 15:56:16;;;;;;;1.63;1.20;;;14.40;91.90;;;;;;5032003;28;20438;-60
2021/05/18 15:58:41;;;;;;;1.57;1.00;;;14.60;91.00;;;;;;5032948;28;20180;-61
2021/05/18 16:01:07;;;;;;;3.03;1.20;;;14.70;90.50;;;;;;5040946;28;20186;-60
2021/05/18 16:03:33;;;;;;;3.03;1.40;;;14.70;81.40;;;;;;5039894;28;20772;-61
2021/05/18 16:06:00;;;;;;;2.13;1.40;;;14.60;78.70;;;;;;5005006;28;20373;-60
2021/05/18 16:10:52;;;;;;;0.93;0.93;;;14.30;82.90;;;;;;5023224;28;20441;-60
2021/05/18 16:13:18;;;;;;;1.90;1.03;;;13.90;82.60;;;;;;5014232;28;20195;-60
2021/05/18 16:15:44;;;;;;;6.20;2.13;;;13.50;86.90;;;;;;4997163;28;20439;-54
2021/05/18 16:18:09;;;;;;;1.10;1.00;;;13.20;88.00;;;;;;5013290;28;20287;-58
2021/05/18 16:20:35;;;;;;;1.30;1.20;;;13.00;83.80;;;;;;5014284;28;20184;-57
2021/05/18 16:23:01;;;;;;;2.10;1.00;;;12.80;84.50;;;;;;5017764;28;20411;-61
2021/05/18 16:25:26;;;;;;;3.80;1.53;;;12.60;88.50;;;;;;5010522;28;20184;-61
2021/05/18 16:27:52;;;;;;;1.47;1.37;;;12.60;88.10;;;;;;5020303;28;20710;-59
2021/05/18 16:30:21;;;;;;;5.60;2.30;;;12.50;87.30;;;;;;5016155;28;21033;-59
2021/05/18 16:32:46;;;;;;;4.70;1.80;;;12.50;86.60;;;;;;5011014;28;20200;-60
2021/05/18 16:35:12;;;;;;;5.10;1.80;;;12.50;88.00;;;;;;5028028;28;20477;-60
2021/05/18 16:37:39;;;;;;;2.50;1.40;;;12.60;87.10;;;;;;5010373;28;20717;-60
2021/05/18 16:40:07;;;;;;;2.83;1.20;;;12.60;85.70;;;;;;5005556;28;20451;-60
2021/05/18 16:42:35;;;;;;;1.63;1.20;;;12.60;84.20;;;;;;5000779;28;20469;-61
2021/05/18 16:45:02;;;;;;;1.50;1.40;;;12.50;83.30;;;;;;5012096;28;20438;-60
2021/05/18 16:47:27;;;;;;;1.73;1.40;;;12.40;81.40;;;;;;5010265;28;20869;-61
2021/05/18 16:49:53;;;;;;;5.93;2.90;;;12.20;81.80;;;;;;5019770;28;20433;-60
2021/05/18 16:52:19;;;;;;;1.60;1.50;;;12.10;83.70;;;;;;5004771;28;20925;-60
2021/05/18 16:54:44;;;;;;;1.20;1.10;;;11.90;88.00;;;;;;5019417;28;20314;-61
2021/05/18 16:57:10;;;;;;;3.03;1.73;;;11.80;85.00;;;;;;5016176;28;20203;-60
2021/05/18 16:59:36;;;;;;;1.83;1.57;;;11.70;86.50;;;;;;5015660;28;20183;-57
2021/05/18 17:02:02;;;;;;;2.00;1.87;;;11.60;89.40;;;;;;5015563;28;20180;-59
2021/05/18 17:04:27;;;;;;;6.80;4.33;;;11.50;89.90;;;;;;5013302;28;20204;-58
2021/05/18 17:06:54;;;;;;;2.30;1.47;;;11.40;90.20;;;;;;5009074;28;20183;-62
2021/05/18 17:09:20;;;;;;;2.47;2.00;;;11.30;88.50;;;;;;5008734;28;20196;-60
2021/05/18 17:11:46;;;;;;;2.43;1.80;;;11.20;90.50;;;;;;5015182;28;20448;-61
2021/05/18 17:14:12;;;;;;;17.93;1.57;;;11.10;90.80;;;;;;5015945;28;20471;-60
2021/05/18 17:16:39;;;;;;;1.53;1.43;;;11.10;90.90;;;;;;5010468;28;20290;-59
2021/05/18 17:19:05;;;;;;;1.30;1.20;;;11.00;91.20;;;;;;5015245;28;20814;-60
2021/05/18 17:21:33;;;;;;;2.03;1.83;;;10.90;91.90;;;;;;5010826;28;20524;-62
2021/05/18 17:23:58;;;;;;;1.97;1.70;;;10.90;91.90;;;;;;5015680;28;20455;-61
2021/05/18 17:26:25;;;;;;;6.40;2.10;;;10.90;92.60;;;;;;5012222;28;20509;-60
2021/05/18 17:28:51;;;;;;;3.80;2.00;;;10.90;93.50;;;;;;5026572;28;20183;-58
2021/05/18 17:31:17;;;;;;;2.30;1.70;;;10.90;94.10;;;;;;5014191;28;20438;-60
2021/05/18 17:33:45;;;;;;;2.63;1.97;;;10.90;94.00;;;;;;5016413;28;20462;-60
2021/05/18 17:36:11;;;;;;;1.83;1.73;;;10.90;94.60;;;;;;5014612;28;20409;-60
2021/05/18 17:38:37;;;;;;;5.50;2.00;;;10.90;95.20;;;;;;5005382;28;20550;-60
2021/05/18 17:41:04;;;;;;;2.83;2.00;;;10.80;96.00;;;;;;5016760;28;21091;-60
2021/05/18 17:43:31;;;;;;;1.83;1.73;;;10.80;96.80;;;;;;5017257;28;20200;-61
2021/05/18 17:45:58;;;;;;;1.83;1.40;;;10.80;97.10;;;;;;5013441;28;20437;-60
2021/05/18 17:48:24;;;;;;;2.30;1.13;;;10.70;94.90;;;;;;5004235;28;20438;-59
2021/05/18 17:50:50;;;;;;;3.47;1.50;;;10.60;93.80;;;;;;5012490;28;20462;-60
2021/05/18 17:53:16;;;;;;;3.50;1.60;;;10.50;94.80;;;;;;5011290;28;20216;-60
2021/05/18 17:55:42;;;;;;;1.20;1.10;;;10.40;93.30;;;;;;5022210;28;20488;-60
2021/05/18 17:58:10;;;;;;;1.37;1.23;;;10.30;93.70;;;;;;5003495;28;20478;-60
2021/05/18 18:00:39;;;;;;;1.50;1.13;;;10.30;93.00;;;;;;5019602;28;20207;-59
2021/05/18 18:03:05;;;;;;;1.60;1.00;;;10.20;92.90;;;;;;4998831;28;20459;-62
2021/05/18 18:05:31;;;;;;;1.50;1.27;;;10.10;93.70;;;;;;5019196;28;20439;-60